sensor_id;sensor_type;location;lat;lon;timestamp;pressure;altitude;pressure_sealevel;temperature;humidity
40948;BME280;49382;-25.924;28.194;2022-08-19T00:01:01;84691.87;;;13.34;19.36
40948;BME280;49382;-25.924;28.194;2022-08-19T00:03:26;84693.71;;;13.18;19.84
40948;BME280;49382;-25.924;28.194;2022-08-19T00:05:52;84693.02;;;14.10;18.97
40948;BME280;49382;-25.924;28.194;2022-08-19T00:08:17;84687.88;;;14.09;19.08
40948;BME280;49382;-25.924;28.194;2022-08-19T00:10:42;84689.98;;;14.04;18.75
40948;BME280;49382;-25.924;28.194;2022-08-19T00:13:07;84693.91;;;13.49;19.09
40948;BME280;49382;-25.924;28.194;2022-08-19T00:15:33;84694.46;;;13.73;19.15
40948;BME280;49382;-25.924;28.194;2022-08-19T00:17:58;84686.38;;;13.44;19.50
40948;BME280;49382;-25.924;28.194;2022-08-19T00:20:23;84690.70;;;13.46;19.63
40948;BME280;49382;-25.924;28.194;2022-08-19T00:22:49;84688.71;;;13.20;19.73
40948;BME280;49382;-25.924;28.194;2022-08-19T00:25:14;84688.70;;;13.30;19.60
40948;BME280;49382;-25.924;28.194;2022-08-19T00:27:39;84689.86;;;13.46;19.48
40948;BME280;49382;-25.924;28.194;2022-08-19T00:30:06;84691.46;;;13.12;19.78
40948;BME280;49382;-25.924;28.194;2022-08-19T00:32:29;84696.45;;;12.82;20.08
40948;BME280;49382;-25.924;28.194;2022-08-19T00:34:54;84694.66;;;12.80;20.21
40948;BME280;49382;-25.924;28.194;2022-08-19T00:37:19;84686.01;;;12.53;20.70
40948;BME280;49382;-25.924;28.194;2022-08-19T00:39:44;84686.34;;;11.92;21.00
40948;BME280;49382;-25.924;28.194;2022-08-19T00:42:09;84694.20;;;12.37;21.15
40948;BME280;49382;-25.924;28.194;2022-08-19T00:44:34;84698.74;;;12.19;21.21
40948;BME280;49382;-25.924;28.194;2022-08-19T00:47:00;84704.91;;;11.58;21.75
40948;BME280;49382;-25.924;28.194;2022-08-19T00:49:27;84707.04;;;11.24;22.64
40948;BME280;49382;-25.924;28.194;2022-08-19T00:51:53;84706.03;;;10.86;23.18
40948;BME280;49382;-25.924;28.194;2022-08-19T00:54:16;84705.17;;;11.21;22.84
40948;BME280;49382;-25.924;28.194;2022-08-19T00:56:41;84704.09;;;12.46;22.00
40948;BME280;49382;-25.924;28.194;2022-08-19T00:59:06;84700.92;;;11.04;23.04
40948;BME280;49382;-25.924;28.194;2022-08-19T01:01:30;84699.71;;;11.47;23.09
40948;BME280;49382;-25.924;28.194;2022-08-19T01:03:55;84694.67;;;12.08;22.94
40948;BME280;49382;-25.924;28.194;2022-08-19T01:06:21;84689.09;;;11.83;23.34
40948;BME280;49382;-25.924;28.194;2022-08-19T01:08:46;84683.82;;;10.88;24.98
40948;BME280;49382;-25.924;28.194;2022-08-19T01:11:11;84696.35;;;11.85;23.74
40948;BME280;49382;-25.924;28.194;2022-08-19T01:13:36;84695.50;;;11.83;23.56
40948;BME280;49382;-25.924;28.194;2022-08-19T01:16:04;84699.48;;;11.43;24.11
40948;BME280;49382;-25.924;28.194;2022-08-19T01:18:27;84695.94;;;11.06;24.91
40948;BME280;49382;-25.924;28.194;2022-08-19T01:20:53;84705.56;;;12.25;23.76
40948;BME280;49382;-25.924;28.194;2022-08-19T01:23:17;84704.14;;;10.87;24.94
40948;BME280;49382;-25.924;28.194;2022-08-19T01:25:46;84699.07;;;12.38;23.56
40948;BME280;49382;-25.924;28.194;2022-08-19T01:28:07;84699.86;;;11.44;24.12
40948;BME280;49382;-25.924;28.194;2022-08-19T01:30:34;84695.18;;;12.20;23.49
40948;BME280;49382;-25.924;28.194;2022-08-19T01:32:58;84691.89;;;12.43;23.05
40948;BME280;49382;-25.924;28.194;2022-08-19T01:35:24;84688.77;;;11.89;23.44
40948;BME280;49382;-25.924;28.194;2022-08-19T01:37:50;84689.63;;;11.39;24.14
40948;BME280;49382;-25.924;28.194;2022-08-19T01:40:13;84696.58;;;11.74;24.04
40948;BME280;49382;-25.924;28.194;2022-08-19T01:42:38;84699.66;;;11.95;23.84
40948;BME280;49382;-25.924;28.194;2022-08-19T01:45:04;84701.82;;;12.00;23.72
40948;BME280;49382;-25.924;28.194;2022-08-19T01:47:28;84698.06;;;11.41;24.08
40948;BME280;49382;-25.924;28.194;2022-08-19T01:49:54;84698.22;;;11.51;23.86
40948;BME280;49382;-25.924;28.194;2022-08-19T01:52:19;84703.66;;;11.60;23.78
40948;BME280;49382;-25.924;28.194;2022-08-19T01:54:44;84708.93;;;11.93;23.53
40948;BME280;49382;-25.924;28.194;2022-08-19T01:57:12;84709.10;;;11.93;23.65
40948;BME280;49382;-25.924;28.194;2022-08-19T01:59:34;84712.54;;;12.04;23.44
40948;BME280;49382;-25.924;28.194;2022-08-19T02:02:01;84706.85;;;12.34;23.16
40948;BME280;49382;-25.924;28.194;2022-08-19T02:04:25;84713.93;;;12.15;23.23
40948;BME280;49382;-25.924;28.194;2022-08-19T02:06:50;84714.10;;;11.19;24.69
40948;BME280;49382;-25.924;28.194;2022-08-19T02:09:15;84712.89;;;11.47;24.23
40948;BME280;49382;-25.924;28.194;2022-08-19T02:11:42;84712.88;;;11.55;23.87
40948;BME280;49382;-25.924;28.194;2022-08-19T02:14:07;84707.76;;;11.25;24.01
40948;BME280;49382;-25.924;28.194;2022-08-19T02:16:31;84710.77;;;11.19;24.32
40948;BME280;49382;-25.924;28.194;2022-08-19T02:18:56;84716.14;;;11.79;23.80
40948;BME280;49382;-25.924;28.194;2022-08-19T02:21:23;84716.78;;;10.49;24.90
40948;BME280;49382;-25.924;28.194;2022-08-19T02:23:47;84719.21;;;10.73;24.86
40948;BME280;49382;-25.924;28.194;2022-08-19T02:26:12;84712.70;;;9.59;25.93
40948;BME280;49382;-25.924;28.194;2022-08-19T02:28:37;84716.08;;;10.68;24.69
40948;BME280;49382;-25.924;28.194;2022-08-19T02:31:02;84711.34;;;11.16;24.33
40948;BME280;49382;-25.924;28.194;2022-08-19T02:33:27;84721.39;;;11.13;24.33
40948;BME280;49382;-25.924;28.194;2022-08-19T02:35:52;84717.39;;;10.87;24.27
40948;BME280;49382;-25.924;28.194;2022-08-19T02:38:17;84719.00;;;10.52;24.29
40948;BME280;49382;-25.924;28.194;2022-08-19T02:40:48;84720.39;;;10.98;24.08
40948;BME280;49382;-25.924;28.194;2022-08-19T02:43:09;84726.03;;;10.59;24.68
40948;BME280;49382;-25.924;28.194;2022-08-19T02:45:34;84729.18;;;11.28;23.98
40948;BME280;49382;-25.924;28.194;2022-08-19T02:47:58;84729.61;;;10.98;23.90
40948;BME280;49382;-25.924;28.194;2022-08-19T02:50:23;84729.22;;;10.89;24.14
40948;BME280;49382;-25.924;28.194;2022-08-19T02:52:48;84732.36;;;11.18;23.57
40948;BME280;49382;-25.924;28.194;2022-08-19T02:55:13;84729.10;;;11.11;23.51
40948;BME280;49382;-25.924;28.194;2022-08-19T02:57:38;84729.33;;;11.31;23.44
40948;BME280;49382;-25.924;28.194;2022-08-19T03:00:06;84733.71;;;10.71;23.93
40948;BME280;49382;-25.924;28.194;2022-08-19T03:02:29;84737.54;;;10.46;23.92
40948;BME280;49382;-25.924;28.194;2022-08-19T03:04:54;84737.86;;;9.88;24.96
40948;BME280;49382;-25.924;28.194;2022-08-19T03:07:19;84740.89;;;10.30;24.81
40948;BME280;49382;-25.924;28.194;2022-08-19T03:09:44;84737.75;;;11.48;23.49
40948;BME280;49382;-25.924;28.194;2022-08-19T03:12:10;84744.56;;;10.37;24.46
40948;BME280;49382;-25.924;28.194;2022-08-19T03:14:35;84751.42;;;11.63;23.02
40948;BME280;49382;-25.924;28.194;2022-08-19T03:17:00;84757.22;;;11.51;23.03
40948;BME280;49382;-25.924;28.194;2022-08-19T03:19:25;84761.94;;;11.91;23.06
40948;BME280;49382;-25.924;28.194;2022-08-19T03:21:51;84761.62;;;10.88;23.76
40948;BME280;49382;-25.924;28.194;2022-08-19T03:24:16;84764.39;;;10.36;24.40
40948;BME280;49382;-25.924;28.194;2022-08-19T03:26:43;84771.42;;;11.84;23.02
40948;BME280;49382;-25.924;28.194;2022-08-19T03:29:06;84776.61;;;11.75;23.27
40948;BME280;49382;-25.924;28.194;2022-08-19T03:31:31;84779.68;;;11.20;23.61
40948;BME280;49382;-25.924;28.194;2022-08-19T03:33:56;84775.88;;;10.74;23.50
40948;BME280;49382;-25.924;28.194;2022-08-19T03:36:23;84771.62;;;11.48;23.28
40948;BME280;49382;-25.924;28.194;2022-08-19T03:38:48;84774.93;;;11.36;23.49
40948;BME280;49382;-25.924;28.194;2022-08-19T03:41:14;84777.93;;;11.08;23.60
40948;BME280;49382;-25.924;28.194;2022-08-19T03:43:38;84777.98;;;10.79;23.99
40948;BME280;49382;-25.924;28.194;2022-08-19T03:46:04;84783.38;;;10.30;24.51
40948;BME280;49382;-25.924;28.194;2022-08-19T03:48:27;84782.59;;;10.90;23.90
40948;BME280;49382;-25.924;28.194;2022-08-19T03:50:52;84783.28;;;10.96;23.70
40948;BME280;49382;-25.924;28.194;2022-08-19T03:53:17;84785.10;;;11.67;23.41
40948;BME280;49382;-25.924;28.194;2022-08-19T03:55:42;84782.44;;;10.97;24.01
40948;BME280;49382;-25.924;28.194;2022-08-19T03:58:08;84785.10;;;11.04;24.15
40948;BME280;49382;-25.924;28.194;2022-08-19T04:00:33;84794.59;;;11.60;23.62
40948;BME280;49382;-25.924;28.194;2022-08-19T04:02:58;84798.14;;;11.40;23.41
40948;BME280;49382;-25.924;28.194;2022-08-19T04:05:23;84799.65;;;11.59;23.51
40948;BME280;49382;-25.924;28.194;2022-08-19T04:07:48;84796.88;;;11.64;23.58
40948;BME280;49382;-25.924;28.194;2022-08-19T04:10:14;84803.93;;;11.29;23.38
40948;BME280;49382;-25.924;28.194;2022-08-19T04:12:39;84800.47;;;11.19;23.67
40948;BME280;49382;-25.924;28.194;2022-08-19T04:15:05;84807.49;;;11.60;23.40
40948;BME280;49382;-25.924;28.194;2022-08-19T04:17:29;84811.67;;;11.69;23.84
40948;BME280;49382;-25.924;28.194;2022-08-19T04:19:54;84810.16;;;10.90;23.95
40948;BME280;49382;-25.924;28.194;2022-08-19T04:22:20;84812.42;;;11.08;23.95
40948;BME280;49382;-25.924;28.194;2022-08-19T04:24:45;84814.65;;;11.04;23.79
40948;BME280;49382;-25.924;28.194;2022-08-19T04:27:10;84819.53;;;10.17;24.94
40948;BME280;49382;-25.924;28.194;2022-08-19T04:29:35;84815.57;;;11.04;24.01
40948;BME280;49382;-25.924;28.194;2022-08-19T04:32:02;84822.39;;;11.64;23.54
40948;BME280;49382;-25.924;28.194;2022-08-19T04:34:28;84817.16;;;11.23;24.15
40948;BME280;49382;-25.924;28.194;2022-08-19T04:36:52;84826.09;;;11.50;23.70
40948;BME280;49382;-25.924;28.194;2022-08-19T04:39:18;84827.87;;;11.49;23.38
40948;BME280;49382;-25.924;28.194;2022-08-19T04:41:42;84829.91;;;11.26;23.80
40948;BME280;49382;-25.924;28.194;2022-08-19T04:44:07;84829.37;;;10.70;24.31
40948;BME280;49382;-25.924;28.194;2022-08-19T04:46:33;84834.96;;;11.27;24.40
40948;BME280;49382;-25.924;28.194;2022-08-19T04:48:58;84838.10;;;11.60;23.63
40948;BME280;49382;-25.924;28.194;2022-08-19T04:51:23;84854.16;;;10.84;24.59
40948;BME280;49382;-25.924;28.194;2022-08-19T04:53:48;84855.37;;;10.94;24.35
40948;BME280;49382;-25.924;28.194;2022-08-19T04:56:16;84859.16;;;10.82;24.64
40948;BME280;49382;-25.924;28.194;2022-08-19T04:58:41;84864.09;;;11.83;23.53
40948;BME280;49382;-25.924;28.194;2022-08-19T05:01:05;84870.05;;;11.87;23.66
40948;BME280;49382;-25.924;28.194;2022-08-19T05:03:30;84871.89;;;12.08;23.53
40948;BME280;49382;-25.924;28.194;2022-08-19T05:05:56;84870.06;;;12.25;23.07
40948;BME280;49382;-25.924;28.194;2022-08-19T05:08:22;84875.84;;;11.57;23.58
40948;BME280;49382;-25.924;28.194;2022-08-19T05:10:47;84874.45;;;11.04;24.15
40948;BME280;49382;-25.924;28.194;2022-08-19T05:13:11;84879.25;;;12.07;23.47
40948;BME280;49382;-25.924;28.194;2022-08-19T05:15:37;84882.51;;;12.28;23.62
40948;BME280;49382;-25.924;28.194;2022-08-19T05:18:02;84882.08;;;11.72;23.88
40948;BME280;49382;-25.924;28.194;2022-08-19T05:20:27;84884.73;;;11.99;23.44
40948;BME280;49382;-25.924;28.194;2022-08-19T05:22:52;84881.29;;;10.44;25.36
40948;BME280;49382;-25.924;28.194;2022-08-19T05:25:20;84872.73;;;11.48;24.05
40948;BME280;49382;-25.924;28.194;2022-08-19T05:27:43;84874.58;;;11.16;24.73
40948;BME280;49382;-25.924;28.194;2022-08-19T05:30:09;84875.94;;;10.79;24.61
40948;BME280;49382;-25.924;28.194;2022-08-19T05:32:34;84875.57;;;11.71;24.27
40948;BME280;49382;-25.924;28.194;2022-08-19T05:34:58;84886.69;;;11.83;23.86
40948;BME280;49382;-25.924;28.194;2022-08-19T05:37:23;84884.45;;;12.22;23.65
40948;BME280;49382;-25.924;28.194;2022-08-19T05:39:48;84883.85;;;12.06;23.94
40948;BME280;49382;-25.924;28.194;2022-08-19T05:42:15;84883.53;;;12.60;22.99
40948;BME280;49382;-25.924;28.194;2022-08-19T05:44:42;84881.29;;;12.81;22.64
40948;BME280;49382;-25.924;28.194;2022-08-19T05:47:07;84886.19;;;12.42;23.12
40948;BME280;49382;-25.924;28.194;2022-08-19T05:49:32;84885.71;;;12.66;22.67
40948;BME280;49382;-25.924;28.194;2022-08-19T05:51:56;84898.65;;;12.79;22.45
40948;BME280;49382;-25.924;28.194;2022-08-19T05:54:21;84908.51;;;13.36;21.97
40948;BME280;49382;-25.924;28.194;2022-08-19T05:56:46;84902.28;;;12.40;23.70
40948;BME280;49382;-25.924;28.194;2022-08-19T05:59:11;84909.62;;;13.68;22.47
40948;BME280;49382;-25.924;28.194;2022-08-19T06:01:37;84915.81;;;13.96;22.07
40948;BME280;49382;-25.924;28.194;2022-08-19T06:04:02;84913.06;;;12.57;23.35
40948;BME280;49382;-25.924;28.194;2022-08-19T06:06:27;84923.93;;;13.18;22.35
40948;BME280;49382;-25.924;28.194;2022-08-19T06:08:52;84921.76;;;12.98;22.56
40948;BME280;49382;-25.924;28.194;2022-08-19T06:11:20;84921.95;;;12.56;23.03
40948;BME280;49382;-25.924;28.194;2022-08-19T06:13:43;84929.82;;;12.95;23.06
40948;BME280;49382;-25.924;28.194;2022-08-19T06:16:08;84929.23;;;13.23;22.42
40948;BME280;49382;-25.924;28.194;2022-08-19T06:18:33;84931.60;;;13.87;21.97
40948;BME280;49382;-25.924;28.194;2022-08-19T06:20:58;84924.93;;;13.32;22.33
40948;BME280;49382;-25.924;28.194;2022-08-19T06:23:23;84932.13;;;13.78;22.84
40948;BME280;49382;-25.924;28.194;2022-08-19T06:25:48;84943.53;;;13.90;22.13
40948;BME280;49382;-25.924;28.194;2022-08-19T06:28:13;84944.72;;;13.66;22.48
40948;BME280;49382;-25.924;28.194;2022-08-19T06:30:38;84952.90;;;13.75;22.09
40948;BME280;49382;-25.924;28.194;2022-08-19T06:33:04;84940.99;;;12.76;22.59
40948;BME280;49382;-25.924;28.194;2022-08-19T06:35:29;84956.77;;;14.10;21.92
40948;BME280;49382;-25.924;28.194;2022-08-19T06:37:54;84945.13;;;14.29;22.21
40948;BME280;49382;-25.924;28.194;2022-08-19T06:40:19;84949.17;;;14.90;21.23
40948;BME280;49382;-25.924;28.194;2022-08-19T06:42:44;84952.65;;;14.79;20.65
40948;BME280;49382;-25.924;28.194;2022-08-19T06:45:10;84954.74;;;15.29;19.93
40948;BME280;49382;-25.924;28.194;2022-08-19T06:47:35;84953.09;;;14.60;20.80
40948;BME280;49382;-25.924;28.194;2022-08-19T06:50:00;84948.19;;;15.69;19.40
40948;BME280;49382;-25.924;28.194;2022-08-19T06:52:25;84949.55;;;16.28;19.66
40948;BME280;49382;-25.924;28.194;2022-08-19T06:54:50;84949.33;;;16.89;18.32
40948;BME280;49382;-25.924;28.194;2022-08-19T06:57:15;84962.16;;;15.20;19.74
40948;BME280;49382;-25.924;28.194;2022-08-19T06:59:40;84966.02;;;16.77;18.60
40948;BME280;49382;-25.924;28.194;2022-08-19T07:02:06;84962.48;;;16.41;18.71
40948;BME280;49382;-25.924;28.194;2022-08-19T07:04:32;84959.11;;;16.76;18.69
40948;BME280;49382;-25.924;28.194;2022-08-19T07:06:59;84972.34;;;15.29;20.37
40948;BME280;49382;-25.924;28.194;2022-08-19T07:09:21;84976.35;;;16.65;19.26
40948;BME280;49382;-25.924;28.194;2022-08-19T07:11:49;84978.11;;;16.50;18.65
40948;BME280;49382;-25.924;28.194;2022-08-19T07:14:11;84976.06;;;17.40;18.01
40948;BME280;49382;-25.924;28.194;2022-08-19T07:16:36;84976.30;;;16.66;17.73
40948;BME280;49382;-25.924;28.194;2022-08-19T07:19:02;84985.82;;;17.24;18.06
40948;BME280;49382;-25.924;28.194;2022-08-19T07:21:29;84986.19;;;17.08;17.52
40948;BME280;49382;-25.924;28.194;2022-08-19T07:23:52;84987.73;;;18.03;17.03
40948;BME280;49382;-25.924;28.194;2022-08-19T07:26:18;84994.81;;;16.97;17.51
40948;BME280;49382;-25.924;28.194;2022-08-19T07:28:42;84995.82;;;15.23;19.10
40948;BME280;49382;-25.924;28.194;2022-08-19T07:31:07;85001.04;;;16.73;18.70
40948;BME280;49382;-25.924;28.194;2022-08-19T07:33:32;85005.20;;;18.58;16.75
40948;BME280;49382;-25.924;28.194;2022-08-19T07:35:57;85007.61;;;18.14;16.39
40948;BME280;49382;-25.924;28.194;2022-08-19T07:38:22;85006.44;;;17.76;17.08
40948;BME280;49382;-25.924;28.194;2022-08-19T07:40:47;85007.35;;;18.27;17.26
40948;BME280;49382;-25.924;28.194;2022-08-19T07:43:12;85010.20;;;18.50;17.40
40948;BME280;49382;-25.924;28.194;2022-08-19T07:45:37;85008.95;;;20.34;16.53
40948;BME280;49382;-25.924;28.194;2022-08-19T07:48:02;85011.42;;;20.09;16.06
40948;BME280;49382;-25.924;28.194;2022-08-19T07:50:28;85012.66;;;19.48;16.64
40948;BME280;49382;-25.924;28.194;2022-08-19T07:52:53;85016.20;;;19.52;16.65
40948;BME280;49382;-25.924;28.194;2022-08-19T07:55:24;85012.66;;;22.10;15.52
40948;BME280;49382;-25.924;28.194;2022-08-19T07:57:44;85020.71;;;21.17;15.33
40948;BME280;49382;-25.924;28.194;2022-08-19T08:00:09;85024.52;;;20.43;16.45
40948;BME280;49382;-25.924;28.194;2022-08-19T08:02:34;85022.44;;;20.06;18.32
40948;BME280;49382;-25.924;28.194;2022-08-19T08:05:00;85022.88;;;21.83;17.06
40948;BME280;49382;-25.924;28.194;2022-08-19T08:07:24;85027.86;;;23.70;14.93
40948;BME280;49382;-25.924;28.194;2022-08-19T08:09:49;85006.47;;;27.76;11.95
40948;BME280;49382;-25.924;28.194;2022-08-19T08:12:17;84986.80;;;32.22;10.34
40948;BME280;49382;-25.924;28.194;2022-08-19T08:14:42;84998.63;;;34.52;8.21
40948;BME280;49382;-25.924;28.194;2022-08-19T08:17:07;84994.21;;;33.13;8.22
40948;BME280;49382;-25.924;28.194;2022-08-19T08:19:32;84995.63;;;37.09;6.54
40948;BME280;49382;-25.924;28.194;2022-08-19T08:21:59;85005.51;;;38.02;5.53
40948;BME280;49382;-25.924;28.194;2022-08-19T08:24:24;84996.10;;;36.52;6.17
40948;BME280;49382;-25.924;28.194;2022-08-19T08:26:49;85000.88;;;41.04;4.56
40948;BME280;49382;-25.924;28.194;2022-08-19T08:29:15;85002.33;;;40.04;5.76
40948;BME280;49382;-25.924;28.194;2022-08-19T08:31:42;85008.47;;;40.46;4.86
40948;BME280;49382;-25.924;28.194;2022-08-19T08:34:06;85015.04;;;38.05;5.41
40948;BME280;49382;-25.924;28.194;2022-08-19T08:36:31;85012.14;;;40.81;4.22
40948;BME280;49382;-25.924;28.194;2022-08-19T08:38:57;85010.83;;;43.06;3.57
40948;BME280;49382;-25.924;28.194;2022-08-19T08:41:30;85023.05;;;43.90;3.96
40948;BME280;49382;-25.924;28.194;2022-08-19T08:43:51;85027.49;;;41.80;3.99
40948;BME280;49382;-25.924;28.194;2022-08-19T08:46:21;85029.16;;;44.88;3.00
40948;BME280;49382;-25.924;28.194;2022-08-19T08:48:45;85024.93;;;43.05;3.87
40948;BME280;49382;-25.924;28.194;2022-08-19T08:51:10;85021.41;;;43.07;3.28
40948;BME280;49382;-25.924;28.194;2022-08-19T08:53:32;85027.52;;;30.61;8.16
40948;BME280;49382;-25.924;28.194;2022-08-19T08:55:56;85024.33;;;28.50;9.41
40948;BME280;49382;-25.924;28.194;2022-08-19T08:58:27;85019.67;;;27.34;10.59
40948;BME280;49382;-25.924;28.194;2022-08-19T09:00:48;85010.64;;;23.87;12.18
40948;BME280;49382;-25.924;28.194;2022-08-19T09:03:18;85002.38;;;22.46;12.80
40948;BME280;49382;-25.924;28.194;2022-08-19T09:05:44;85009.39;;;23.57;13.41
40948;BME280;49382;-25.924;28.194;2022-08-19T09:08:08;85003.51;;;22.57;14.14
40948;BME280;49382;-25.924;28.194;2022-08-19T09:10:36;85002.74;;;22.49;13.60
40948;BME280;49382;-25.924;28.194;2022-08-19T09:13:04;85005.68;;;19.41;17.66
40948;BME280;49382;-25.924;28.194;2022-08-19T09:15:25;85012.56;;;20.40;14.75
40948;BME280;49382;-25.924;28.194;2022-08-19T09:17:46;85009.82;;;20.76;14.40
40948;BME280;49382;-25.924;28.194;2022-08-19T09:20:18;85008.93;;;21.63;14.04
40948;BME280;49382;-25.924;28.194;2022-08-19T09:22:39;85003.44;;;20.02;16.70
40948;BME280;49382;-25.924;28.194;2022-08-19T09:25:04;85015.99;;;18.81;19.77
40948;BME280;49382;-25.924;28.194;2022-08-19T09:27:30;85010.79;;;19.07;18.97
40948;BME280;49382;-25.924;28.194;2022-08-19T09:29:54;84997.88;;;18.85;18.94
40948;BME280;49382;-25.924;28.194;2022-08-19T09:32:20;85007.55;;;18.47;18.00
40948;BME280;49382;-25.924;28.194;2022-08-19T09:34:45;85014.11;;;19.93;15.56
40948;BME280;49382;-25.924;28.194;2022-08-19T09:37:11;85011.82;;;20.52;14.63
40948;BME280;49382;-25.924;28.194;2022-08-19T09:39:36;85007.08;;;20.24;14.06
40948;BME280;49382;-25.924;28.194;2022-08-19T09:42:02;85010.54;;;19.31;15.18
40948;BME280;49382;-25.924;28.194;2022-08-19T09:44:27;85019.44;;;19.45;14.16
40948;BME280;49382;-25.924;28.194;2022-08-19T09:46:52;85017.59;;;18.46;16.17
40948;BME280;49382;-25.924;28.194;2022-08-19T09:49:19;85010.95;;;18.24;15.12
40948;BME280;49382;-25.924;28.194;2022-08-19T09:51:44;85009.85;;;17.97;15.85
40948;BME280;49382;-25.924;28.194;2022-08-19T09:54:09;85006.52;;;18.59;15.60
40948;BME280;49382;-25.924;28.194;2022-08-19T09:56:34;85007.19;;;18.14;16.84
40948;BME280;49382;-25.924;28.194;2022-08-19T09:58:59;85013.96;;;18.49;14.96
40948;BME280;49382;-25.924;28.194;2022-08-19T10:01:26;85012.69;;;17.28;15.68
40948;BME280;49382;-25.924;28.194;2022-08-19T10:03:50;85006.02;;;18.79;15.75
40948;BME280;49382;-25.924;28.194;2022-08-19T10:06:14;85002.82;;;19.15;14.90
40948;BME280;49382;-25.924;28.194;2022-08-19T10:08:39;85001.54;;;19.17;14.38
40948;BME280;49382;-25.924;28.194;2022-08-19T10:11:05;84993.05;;;18.57;15.67
40948;BME280;49382;-25.924;28.194;2022-08-19T10:13:30;84992.29;;;16.93;17.68
40948;BME280;49382;-25.924;28.194;2022-08-19T10:15:55;84998.94;;;17.65;16.85
40948;BME280;49382;-25.924;28.194;2022-08-19T10:18:21;84998.77;;;17.43;16.73
40948;BME280;49382;-25.924;28.194;2022-08-19T10:20:44;85000.41;;;16.18;17.90
40948;BME280;49382;-25.924;28.194;2022-08-19T10:23:09;85005.06;;;15.73;18.23
40948;BME280;49382;-25.924;28.194;2022-08-19T10:25:34;85004.31;;;15.97;17.07
40948;BME280;49382;-25.924;28.194;2022-08-19T10:27:59;84996.65;;;17.12;16.22
40948;BME280;49382;-25.924;28.194;2022-08-19T10:30:24;85004.94;;;18.09;16.43
40948;BME280;49382;-25.924;28.194;2022-08-19T10:32:49;84999.30;;;15.91;18.20
40948;BME280;49382;-25.924;28.194;2022-08-19T10:35:14;85006.71;;;17.04;16.46
40948;BME280;49382;-25.924;28.194;2022-08-19T10:37:39;85005.22;;;18.04;18.05
40948;BME280;49382;-25.924;28.194;2022-08-19T10:40:06;84992.01;;;17.33;16.62
40948;BME280;49382;-25.924;28.194;2022-08-19T10:42:29;84999.51;;;15.93;17.80
40948;BME280;49382;-25.924;28.194;2022-08-19T10:44:54;85006.88;;;16.02;19.90
40948;BME280;49382;-25.924;28.194;2022-08-19T10:47:19;84991.70;;;17.27;16.70
40948;BME280;49382;-25.924;28.194;2022-08-19T10:49:44;85002.78;;;16.63;16.68
40948;BME280;49382;-25.924;28.194;2022-08-19T10:52:09;84987.17;;;15.88;17.60
40948;BME280;49382;-25.924;28.194;2022-08-19T10:54:34;85006.07;;;14.95;18.96
40948;BME280;49382;-25.924;28.194;2022-08-19T10:57:00;84998.33;;;15.91;17.68
40948;BME280;49382;-25.924;28.194;2022-08-19T10:59:27;84999.58;;;15.73;18.54
40948;BME280;49382;-25.924;28.194;2022-08-19T11:01:50;84984.33;;;16.68;17.15
40948;BME280;49382;-25.924;28.194;2022-08-19T11:04:15;84986.07;;;15.57;17.79
40948;BME280;49382;-25.924;28.194;2022-08-19T11:06:41;84987.29;;;15.91;18.74
40948;BME280;49382;-25.924;28.194;2022-08-19T11:09:06;84984.39;;;15.23;19.44
40948;BME280;49382;-25.924;28.194;2022-08-19T11:11:31;84970.79;;;16.50;16.36
40948;BME280;49382;-25.924;28.194;2022-08-19T11:13:56;84975.97;;;16.93;16.37
40948;BME280;49382;-25.924;28.194;2022-08-19T11:16:25;84972.22;;;15.38;17.81
40948;BME280;49382;-25.924;28.194;2022-08-19T11:18:49;84970.34;;;15.54;18.57
40948;BME280;49382;-25.924;28.194;2022-08-19T11:21:16;84970.99;;;16.61;15.55
40948;BME280;49382;-25.924;28.194;2022-08-19T11:23:38;84971.59;;;15.99;17.22
40948;BME280;49382;-25.924;28.194;2022-08-19T11:26:03;84975.34;;;15.70;17.41
40948;BME280;49382;-25.924;28.194;2022-08-19T11:28:28;84970.47;;;16.21;16.35
40948;BME280;49382;-25.924;28.194;2022-08-19T11:30:53;84975.65;;;15.76;18.09
40948;BME280;49382;-25.924;28.194;2022-08-19T11:33:18;84968.49;;;15.67;15.84
40948;BME280;49382;-25.924;28.194;2022-08-19T11:35:43;84973.55;;;16.25;15.48
40948;BME280;49382;-25.924;28.194;2022-08-19T11:38:08;84973.48;;;16.09;16.16
40948;BME280;49382;-25.924;28.194;2022-08-19T11:40:33;84978.56;;;16.86;16.53
40948;BME280;49382;-25.924;28.194;2022-08-19T11:42:58;84970.72;;;15.70;16.83
40948;BME280;49382;-25.924;28.194;2022-08-19T11:45:23;84965.23;;;16.02;15.92
40948;BME280;49382;-25.924;28.194;2022-08-19T11:47:48;84964.01;;;14.68;18.35
40948;BME280;49382;-25.924;28.194;2022-08-19T11:50:13;84969.03;;;15.54;17.50
40948;BME280;49382;-25.924;28.194;2022-08-19T11:52:38;84963.86;;;16.08;16.22
40948;BME280;49382;-25.924;28.194;2022-08-19T11:55:04;84960.92;;;15.67;16.94
40948;BME280;49382;-25.924;28.194;2022-08-19T11:57:28;84970.80;;;17.04;15.39
40948;BME280;49382;-25.924;28.194;2022-08-19T11:59:53;84965.68;;;14.67;18.11
40948;BME280;49382;-25.924;28.194;2022-08-19T12:02:19;84975.16;;;15.96;16.57
40948;BME280;49382;-25.924;28.194;2022-08-19T12:04:44;84961.66;;;15.11;15.66
40948;BME280;49382;-25.924;28.194;2022-08-19T12:07:09;84973.06;;;14.54;16.52
40948;BME280;49382;-25.924;28.194;2022-08-19T12:09:34;84979.35;;;15.12;16.06
40948;BME280;49382;-25.924;28.194;2022-08-19T12:11:59;84975.62;;;14.70;16.83
40948;BME280;49382;-25.924;28.194;2022-08-19T12:14:24;84966.80;;;15.55;16.98
40948;BME280;49382;-25.924;28.194;2022-08-19T12:16:49;84975.39;;;15.58;15.76
40948;BME280;49382;-25.924;28.194;2022-08-19T12:19:14;84975.13;;;14.93;16.26
40948;BME280;49382;-25.924;28.194;2022-08-19T12:21:39;84983.55;;;14.66;16.93
40948;BME280;49382;-25.924;28.194;2022-08-19T12:24:05;84974.58;;;14.85;16.20
40948;BME280;49382;-25.924;28.194;2022-08-19T12:26:30;84973.43;;;15.92;14.74
40948;BME280;49382;-25.924;28.194;2022-08-19T12:28:55;84979.54;;;15.10;16.60